Time,TemperatureF,DewpointF,PressureIn,WindDirection,WindDirectionDegrees,WindSpeedMPH,WindSpeedGustMPH,Humidity,HourlyPrecipIn,Conditions,Clouds,dailyrainin,SoftwareType,DateUTC
2013-05-11 00:09:00,59.4,56.0,29.79,NNW,337,0.0,-999.0,89,-99.99,,,0.00,weatherlink.com 1.10,2013-05-11 04:09:00,
2013-05-11 00:24:00,59.2,56.0,29.79,NNW,337,0.0,-999.0,89,-99.99,,,0.00,weatherlink.com 1.10,2013-05-11 04:24:00,
2013-05-11 00:39:00,59.6,56.0,29.78,NNW,337,0.0,-999.0,89,-99.99,,,0.00,weatherlink.com 1.10,2013-05-11 04:39:00,
2013-05-11 00:54:00,60.1,57.0,29.78,NNW,337,0.0,-999.0,88,-99.99,,,0.00,weatherlink.com 1.10,2013-05-11 04:54:00,
2013-05-11 01:09:00,60.6,56.0,29.77,NNW,337,0.0,-999.0,85,-99.99,,,0.00,weatherlink.com 1.10,2013-05-11 05:09:00,
2013-05-11 01:24:00,60.4,56.0,29.77,NNW,337,0.0,-999.0,85,-99.99,,,0.00,weatherlink.com 1.10,2013-05-11 05:24:00,
2013-05-11 01:39:00,60.0,56.0,29.76,NNW,337,0.0,-999.0,85,-99.99,,,0.00,weatherlink.com 1.10,2013-05-11 05:39:00,
2013-05-11 01:54:00,60.0,56.0,29.75,NNW,337,0.0,-999.0,85,-99.99,,,0.00,weatherlink.com 1.10,2013-05-11 05:54:00,
2013-05-11 02:09:00,60.7,55.0,29.75,NNW,337,0.0,-999.0,82,-99.99,,,0.00,weatherlink.com 1.10,2013-05-11 06:09:00,
2013-05-11 02:24:00,61.1,56.0,29.74,NNW,337,0.0,-999.0,82,-99.99,,,0.00,weatherlink.com 1.10,2013-05-11 06:24:00,
2013-05-11 02:39:00,60.9,56.0,29.73,NNW,337,1.0,-999.0,84,-99.99,,,0.01,weatherlink.com 1.10,2013-05-11 06:39:00,
2013-05-11 02:54:00,60.0,57.0,29.73,NNW,337,0.0,-999.0,89,-99.99,,,0.01,weatherlink.com 1.10,2013-05-11 06:54:00,
2013-05-11 03:09:00,59.2,56.0,29.72,NNW,338,0.0,-999.0,90,-99.99,,,0.01,weatherlink.com 1.10,2013-05-11 07:09:00,
2013-05-11 03:24:00,59.6,56.0,29.71,WNW,302,0.0,-999.0,89,-99.99,,,0.01,weatherlink.com 1.10,2013-05-11 07:24:00,
2013-05-11 03:39:00,59.7,56.0,29.71,WNW,302,0.0,-999.0,88,-99.99,,,0.01,weatherlink.com 1.10,2013-05-11 07:39:00,
2013-05-11 03:54:00,59.2,57.0,29.70,WNW,302,0.0,-999.0,93,-99.99,,,0.05,weatherlink.com 1.10,2013-05-11 07:54:00,
2013-05-11 04:09:00,58.6,57.0,29.70,WNW,302,0.0,-999.0,95,-99.99,,,0.05,weatherlink.com 1.10,2013-05-11 08:09:00,
2013-05-11 04:24:00,58.2,57.0,29.71,WNW,302,0.0,-999.0,96,-99.99,,,0.05,weatherlink.com 1.10,2013-05-11 08:24:00,
2013-05-11 04:39:00,58.1,57.0,29.70,WNW,303,0.0,-999.0,96,-99.99,,,0.05,weatherlink.com 1.10,2013-05-11 08:39:00,
2013-05-11 04:54:00,57.9,57.0,29.69,WNW,303,0.0,-999.0,96,-99.99,,,0.05,weatherlink.com 1.10,2013-05-11 08:54:00,
2013-05-11 05:09:00,57.6,57.0,29.69,WNW,303,0.0,-999.0,97,-99.99,,,0.05,weatherlink.com 1.10,2013-05-11 09:09:00,
2013-05-11 05:25:00,57.5,57.0,29.69,WNW,303,0.0,-999.0,97,-99.99,,,0.05,weatherlink.com 1.10,2013-05-11 09:25:00,
2013-05-11 05:40:00,57.5,57.0,29.68,WNW,303,0.0,-999.0,97,-99.99,,,0.05,weatherlink.com 1.10,2013-05-11 09:40:00,
2013-05-11 05:55:00,57.3,57.0,29.68,WNW,303,0.0,-999.0,97,-99.99,,,0.06,weatherlink.com 1.10,2013-05-11 09:55:00,
2013-05-11 06:10:00,57.3,57.0,29.68,WNW,303,0.0,-999.0,98,-99.99,,,0.07,weatherlink.com 1.10,2013-05-11 10:10:00,
2013-05-11 06:25:00,57.3,57.0,29.68,WNW,303,0.0,-999.0,98,-99.99,,,0.07,weatherlink.com 1.10,2013-05-11 10:25:00,
2013-05-11 06:40:00,57.3,57.0,29.68,WNW,303,0.0,-999.0,98,-99.99,,,0.10,weatherlink.com 1.10,2013-05-11 10:40:00,
2013-05-11 06:55:00,57.2,57.0,29.68,WNW,303,0.0,-999.0,98,-99.99,,,0.11,weatherlink.com 1.10,2013-05-11 10:55:00,
2013-05-11 07:10:00,57.3,57.0,29.68,WNW,303,0.0,-999.0,98,-99.99,,,0.12,weatherlink.com 1.10,2013-05-11 11:10:00,
2013-05-11 07:25:00,57.4,57.0,29.67,WNW,303,0.0,-999.0,99,-99.99,,,0.13,weatherlink.com 1.10,2013-05-11 11:25:00,
2013-05-11 07:40:00,57.5,57.0,29.66,WNW,303,0.0,-999.0,99,-99.99,,,0.14,weatherlink.com 1.10,2013-05-11 11:40:00,
2013-05-11 07:55:00,57.5,57.0,29.66,WNW,303,0.0,-999.0,99,-99.99,,,0.14,weatherlink.com 1.10,2013-05-11 11:55:00,
2013-05-11 08:10:00,57.6,57.0,29.65,North,11,0.0,-999.0,99,-99.99,,,0.14,weatherlink.com 1.10,2013-05-11 12:10:00,
2013-05-11 08:25:00,57.7,58.0,29.65,North,11,0.0,-999.0,99,-99.99,,,0.15,weatherlink.com 1.10,2013-05-11 12:25:00,
2013-05-11 08:40:00,57.8,58.0,29.65,North,11,0.0,-999.0,99,-99.99,,,0.15,weatherlink.com 1.10,2013-05-11 12:40:00,
2013-05-11 08:55:00,58.0,58.0,29.65,North,11,0.0,-999.0,99,-99.99,,,0.15,weatherlink.com 1.10,2013-05-11 12:55:00,
2013-05-11 09:10:00,58.4,58.0,29.65,North,11,0.0,-999.0,99,-99.99,,,0.15,weatherlink.com 1.10,2013-05-11 13:10:00,
2013-05-11 09:25:00,58.5,58.0,29.65,North,360,0.0,-999.0,99,-99.99,,,0.15,weatherlink.com 1.10,2013-05-11 13:25:00,
2013-05-11 09:40:00,58.7,59.0,29.64,WSW,243,0.0,-999.0,99,-99.99,,,0.15,weatherlink.com 1.10,2013-05-11 13:40:00,
2013-05-11 09:55:00,58.9,59.0,29.64,SW,229,0.0,-999.0,99,-99.99,,,0.15,weatherlink.com 1.10,2013-05-11 13:55:00,
2013-05-11 10:10:00,59.1,59.0,29.64,SW,216,0.0,-999.0,99,-99.99,,,0.15,weatherlink.com 1.10,2013-05-11 14:10:00,
2013-05-11 10:25:00,59.7,60.0,29.64,SSW,202,0.0,-999.0,99,-99.99,,,0.15,weatherlink.com 1.10,2013-05-11 14:25:00,
2013-05-11 10:40:00,60.9,60.0,29.64,WSW,258,0.0,-999.0,98,-99.99,,,0.15,weatherlink.com 1.10,2013-05-11 14:40:00,
2013-05-11 10:55:00,61.5,60.0,29.63,SSW,202,2.0,-999.0,96,-99.99,,,0.15,weatherlink.com 1.10,2013-05-11 14:55:00,
2013-05-11 11:10:00,62.5,61.0,29.63,South,184,1.0,-999.0,93,-99.99,,,0.15,weatherlink.com 1.10,2013-05-11 15:10:00,
2013-05-11 11:25:00,62.8,60.0,29.63,South,180,1.0,-999.0,91,-99.99,,,0.15,weatherlink.com 1.10,2013-05-11 15:25:00,
2013-05-11 11:40:00,63.1,59.0,29.62,SSE,150,0.0,-999.0,87,-99.99,,,0.15,weatherlink.com 1.10,2013-05-11 15:40:00,
2013-05-11 11:55:00,63.2,60.0,29.62,SSW,211,0.0,-999.0,89,-99.99,,,0.15,weatherlink.com 1.10,2013-05-11 15:55:00,
2013-05-11 12:10:00,63.4,60.0,29.62,South,169,0.0,-999.0,88,-99.99,,,0.15,weatherlink.com 1.10,2013-05-11 16:10:00,
2013-05-11 12:25:00,63.7,60.0,29.62,SSW,202,0.0,-999.0,87,-99.99,,,0.15,weatherlink.com 1.10,2013-05-11 16:25:00,
2013-05-11 12:40:00,64.3,60.0,29.62,South,173,0.0,-999.0,87,-99.99,,,0.15,weatherlink.com 1.10,2013-05-11 16:40:00,
2013-05-11 12:55:00,64.6,60.0,29.61,SSW,209,0.0,-999.0,86,-99.99,,,0.15,weatherlink.com 1.10,2013-05-11 16:55:00,
2013-05-11 13:10:00,64.2,61.0,29.61,South,190,3.0,-999.0,88,-99.99,,,0.15,weatherlink.com 1.10,2013-05-11 17:10:00,
2013-05-11 13:25:00,64.5,61.0,29.61,SSW,213,0.0,-999.0,88,-99.99,,,0.15,weatherlink.com 1.10,2013-05-11 17:25:00,
2013-05-11 13:40:00,64.7,60.0,29.60,SSW,200,0.0,-999.0,85,-99.99,,,0.15,weatherlink.com 1.10,2013-05-11 17:40:00,
2013-05-11 13:55:00,64.4,61.0,29.60,SSW,201,0.0,-999.0,89,-99.99,,,0.15,weatherlink.com 1.10,2013-05-11 17:55:00,
2013-05-11 14:10:00,63.4,61.0,29.61,SSW,201,0.0,-999.0,91,-99.99,,,0.18,weatherlink.com 1.10,2013-05-11 18:10:00,
2013-05-11 14:25:00,62.0,61.0,29.60,SSW,205,0.0,-999.0,95,-99.99,,,0.23,weatherlink.com 1.10,2013-05-11 18:25:00,
2013-05-11 14:40:00,61.5,60.0,29.60,SW,224,1.0,-999.0,96,-99.99,,,0.24,weatherlink.com 1.10,2013-05-11 18:40:00,
2013-05-11 14:55:00,61.3,61.0,29.60,SSW,208,0.0,-999.0,97,-99.99,,,0.24,weatherlink.com 1.10,2013-05-11 18:55:00,
2013-05-11 15:10:00,61.1,60.0,29.59,SSW,194,0.0,-999.0,97,-99.99,,,0.28,weatherlink.com 1.10,2013-05-11 19:10:00,
2013-05-11 15:25:00,61.1,61.0,29.59,SSW,197,0.0,-999.0,98,-99.99,,,0.30,weatherlink.com 1.10,2013-05-11 19:25:00,
2013-05-11 15:40:00,61.3,61.0,29.59,ENE,58,0.0,-999.0,98,-99.99,,,0.30,weatherlink.com 1.10,2013-05-11 19:40:00,
2013-05-11 15:55:00,61.4,61.0,29.59,South,181,0.0,-999.0,98,-99.99,,,0.30,weatherlink.com 1.10,2013-05-11 19:55:00,
2013-05-11 16:10:00,61.2,61.0,29.59,South,181,0.0,-999.0,98,-99.99,,,0.30,weatherlink.com 1.10,2013-05-11 20:10:00,
2013-05-11 16:25:00,60.9,60.0,29.58,SSW,202,0.0,-999.0,98,-99.99,,,0.31,weatherlink.com 1.10,2013-05-11 20:25:00,
2013-05-11 16:40:00,61.0,61.0,29.58,SSW,203,0.0,-999.0,98,-99.99,,,0.35,weatherlink.com 1.10,2013-05-11 20:40:00,
2013-05-11 16:55:00,61.0,61.0,29.58,SSW,203,0.0,-999.0,99,-99.99,,,0.39,weatherlink.com 1.10,2013-05-11 20:55:00,
2013-05-11 17:10:00,61.0,61.0,29.58,SSW,203,0.0,-999.0,98,-99.99,,,0.40,weatherlink.com 1.10,2013-05-11 21:10:00,
2013-05-11 17:26:00,60.8,60.0,29.58,SSW,203,0.0,-999.0,98,-99.99,,,0.41,weatherlink.com 1.10,2013-05-11 21:26:00,
2013-05-11 17:41:00,60.5,60.0,29.58,SSW,203,0.0,-999.0,98,-99.99,,,0.44,weatherlink.com 1.10,2013-05-11 21:41:00,
2013-05-11 17:56:00,60.4,60.0,29.58,SSW,203,0.0,-999.0,99,-99.99,,,0.44,weatherlink.com 1.10,2013-05-11 21:56:00,
2013-05-11 18:11:00,60.4,60.0,29.58,SSW,203,0.0,-999.0,99,-99.99,,,0.44,weatherlink.com 1.10,2013-05-11 22:11:00,
2013-05-11 18:26:00,60.4,60.0,29.59,SSW,203,0.0,-999.0,99,-99.99,,,0.44,weatherlink.com 1.10,2013-05-11 22:26:00,
2013-05-11 18:41:00,60.4,60.0,29.58,SSW,203,0.0,-999.0,99,-99.99,,,0.44,weatherlink.com 1.10,2013-05-11 22:41:00,
2013-05-11 18:56:00,60.5,60.0,29.59,SW,214,0.0,-999.0,99,-99.99,,,0.44,weatherlink.com 1.10,2013-05-11 22:56:00,
2013-05-11 19:11:00,60.5,60.0,29.59,SW,214,0.0,-999.0,99,-99.99,,,0.44,weatherlink.com 1.10,2013-05-11 23:11:00,
2013-05-11 19:26:00,60.4,60.0,29.60,SW,214,0.0,-999.0,99,-99.99,,,0.44,weatherlink.com 1.10,2013-05-11 23:26:00,
2013-05-11 19:41:00,60.3,60.0,29.60,SW,214,0.0,-999.0,99,-99.99,,,0.44,weatherlink.com 1.10,2013-05-11 23:41:00,
2013-05-11 19:56:00,60.0,60.0,29.60,SW,214,0.0,-999.0,99,-99.99,,,0.44,weatherlink.com 1.10,2013-05-11 23:56:00,
2013-05-11 20:11:00,59.7,60.0,29.60,SW,214,0.0,-999.0,99,-99.99,,,0.44,weatherlink.com 1.10,2013-05-12 00:11:00,
2013-05-11 20:26:00,59.4,59.0,29.61,SW,214,0.0,-999.0,99,-99.99,,,0.44,weatherlink.com 1.10,2013-05-12 00:26:00,
2013-05-11 20:41:00,59.2,59.0,29.61,SW,225,0.0,-999.0,99,-99.99,,,0.44,weatherlink.com 1.10,2013-05-12 00:41:00,
2013-05-11 20:56:00,58.9,59.0,29.62,SW,225,0.0,-999.0,99,-99.99,,,0.44,weatherlink.com 1.10,2013-05-12 00:56:00,
2013-05-11 21:11:00,58.9,59.0,29.62,SW,225,0.0,-999.0,99,-99.99,,,0.44,weatherlink.com 1.10,2013-05-12 01:11:00,
2013-05-11 21:26:00,58.7,59.0,29.61,SW,234,0.0,-999.0,99,-99.99,,,0.44,weatherlink.com 1.10,2013-05-12 01:26:00,
2013-05-11 21:41:00,58.5,58.0,29.61,SW,234,0.0,-999.0,99,-99.99,,,0.44,weatherlink.com 1.10,2013-05-12 01:41:00,
2013-05-11 21:56:00,58.6,58.0,29.61,SW,234,0.0,-999.0,99,-99.99,,,0.44,weatherlink.com 1.10,2013-05-12 01:56:00,
2013-05-11 22:11:00,57.8,58.0,29.62,WSW,237,0.0,-999.0,99,-99.99,,,0.44,weatherlink.com 1.10,2013-05-12 02:11:00,
2013-05-11 22:26:00,56.3,56.0,29.62,NW,322,1.0,-999.0,98,-99.99,,,0.44,weatherlink.com 1.10,2013-05-12 02:26:00,
2013-05-11 22:41:00,54.9,54.0,29.62,NW,322,0.0,-999.0,98,-99.99,,,0.44,weatherlink.com 1.10,2013-05-12 02:41:00,
2013-05-11 22:56:00,54.1,54.0,29.62,NW,322,0.0,-999.0,98,-99.99,,,0.44,weatherlink.com 1.10,2013-05-12 02:56:00,
2013-05-11 23:11:00,53.5,53.0,29.62,NW,322,0.0,-999.0,98,-99.99,,,0.44,weatherlink.com 1.10,2013-05-12 03:11:00,
2013-05-11 23:26:00,53.4,53.0,29.62,NW,322,0.0,-999.0,99,-99.99,,,0.44,weatherlink.com 1.10,2013-05-12 03:26:00,
2013-05-11 23:41:00,53.3,53.0,29.63,NW,322,0.0,-999.0,99,-99.99,,,0.44,weatherlink.com 1.10,2013-05-12 03:41:00,
2013-05-11 23:56:00,53.3,53.0,29.63,NW,322,0.0,-999.0,99,-99.99,,,0.44,weatherlink.com 1.10,2013-05-12 03:56:00,